createdAt,value
2018-01-11T00:01:15.368Z,64.51
2018-01-11T00:03:44.748Z,64.48
2018-01-11T00:06:13.132Z,64.41
2018-01-11T00:08:41.499Z,64.11
2018-01-11T00:11:09.915Z,63.98
2018-01-11T00:13:38.392Z,63.61
2018-01-11T00:16:06.753Z,63.44
2018-01-11T00:18:35.111Z,63.86
2018-01-11T00:21:03.512Z,64.03
2018-01-11T00:23:31.867Z,63.74
2018-01-11T00:26:00.738Z,63.43
2018-01-11T00:28:29.103Z,63.04
2018-01-11T00:30:57.455Z,62.98
2018-01-11T00:33:25.815Z,63.04
2018-01-11T00:35:54.227Z,62.81
2018-01-11T00:38:22.700Z,62.72
2018-01-11T00:40:51.719Z,63.40
2018-01-11T00:43:20.067Z,62.79
2018-01-11T00:45:48.655Z,62.74
2018-01-11T00:48:17.008Z,62.95
2018-01-11T00:50:45.386Z,63.77
2018-01-11T00:53:13.788Z,63.27
2018-01-11T00:55:42.174Z,63.25
2018-01-11T00:58:10.541Z,63.06
2018-01-11T01:00:38.907Z,62.78
2018-01-11T01:03:07.293Z,63.00
2018-01-11T01:05:35.667Z,62.79
2018-01-11T01:08:04.072Z,62.22
2018-01-11T01:10:32.455Z,62.43
2018-01-11T01:13:00.933Z,62.65
2018-01-11T01:15:29.412Z,62.54
2018-01-11T01:17:57.784Z,62.83
2018-01-11T01:20:26.203Z,62.21
2018-01-11T01:22:55.082Z,62.06
2018-01-11T01:25:23.540Z,62.67
2018-01-11T01:27:51.937Z,62.19
2018-01-11T01:30:20.292Z,62.06
2018-01-11T01:32:48.666Z,61.63
2018-01-11T01:35:17.036Z,61.45
2018-01-11T01:37:45.396Z,61.31
2018-01-11T01:40:13.774Z,61.20
2018-01-11T01:42:42.202Z,61.17
2018-01-11T01:45:10.666Z,61.38
2018-01-11T01:47:39.132Z,61.49
2018-01-11T01:50:07.948Z,61.48
2018-01-11T01:52:36.320Z,61.22
2018-01-11T01:55:04.678Z,61.61
2018-01-11T01:57:33.039Z,61.47
2018-01-11T02:00:01.409Z,61.16
2018-01-11T02:02:29.761Z,60.79
2018-01-11T02:04:58.143Z,61.27
2018-01-11T02:07:26.592Z,61.47
2018-01-11T02:09:54.959Z,62.11
2018-01-11T02:12:23.387Z,63.66
2018-01-11T02:14:51.828Z,64.35
2018-01-11T02:17:20.320Z,63.58
2018-01-11T02:19:48.682Z,62.74
2018-01-11T02:22:17.043Z,63.10
2018-01-11T02:24:45.408Z,62.35
2018-01-11T02:27:13.825Z,62.25
2018-01-11T02:29:42.859Z,61.83
2018-01-11T02:32:11.699Z,61.83
2018-01-11T02:34:40.059Z,61.78
2018-01-11T02:37:08.424Z,61.75
2018-01-11T02:39:36.838Z,62.17
2018-01-11T02:42:05.215Z,62.24
2018-01-11T02:44:33.597Z,63.65
2018-01-11T02:47:01.971Z,63.24
2018-01-11T02:49:30.353Z,62.83
2018-01-11T02:51:59.278Z,61.96
2018-01-11T02:54:27.644Z,61.37
2018-01-11T02:56:56.004Z,60.85
2018-01-11T02:59:24.378Z,60.63
2018-01-11T03:01:52.759Z,60.52
2018-01-11T03:04:21.239Z,60.38
2018-01-11T03:06:49.620Z,60.07
2018-01-11T03:09:18.050Z,60.16
2018-01-11T03:11:46.816Z,59.95
2018-01-11T03:14:15.267Z,60.45
2018-01-11T03:16:43.620Z,59.45
2018-01-11T03:19:12.025Z,59.20
2018-01-11T03:21:40.400Z,59.05
2018-01-11T03:24:08.781Z,58.89
2018-01-11T03:26:37.136Z,58.73
2018-01-11T03:29:06.032Z,58.43
2018-01-11T03:31:34.412Z,59.54
2018-01-11T03:34:02.783Z,58.74
2018-01-11T03:36:31.164Z,58.65
2018-01-11T03:38:59.572Z,58.40
2018-01-11T03:41:27.932Z,58.59
2018-01-11T03:43:56.343Z,58.12
2018-01-11T03:46:24.694Z,58.32
2018-01-11T03:48:53.063Z,58.92
2018-01-11T03:51:21.415Z,58.31
2018-01-11T03:53:50.164Z,58.29
2018-01-11T03:56:18.534Z,58.27
2018-01-11T03:58:47.007Z,58.04
2018-01-11T04:01:15.502Z,58.65
2018-01-11T04:03:43.880Z,58.92
2018-01-11T04:06:12.352Z,58.26
2018-01-11T04:08:40.730Z,58.16
2018-01-11T04:11:09.092Z,58.04
2018-01-11T04:13:37.472Z,58.27
2018-01-11T04:16:05.859Z,57.89
2018-01-11T04:18:34.217Z,57.82
2018-01-11T04:21:02.633Z,57.59
2018-01-11T04:23:30.990Z,57.46
2018-01-11T04:25:59.358Z,57.29
2018-01-11T04:28:27.849Z,56.81
2018-01-11T04:30:56.239Z,56.70
2018-01-11T04:33:25.745Z,57.30
2018-01-11T04:35:54.104Z,57.60
2018-01-11T04:38:22.510Z,57.25
2018-01-11T04:40:50.939Z,57.92
2018-01-11T04:43:19.687Z,57.71
2018-01-11T04:45:48.129Z,57.55
2018-01-11T04:48:16.632Z,57.98
2018-01-11T04:50:45.055Z,58.45
2018-01-11T04:53:13.912Z,58.90
2018-01-11T04:55:42.271Z,59.31
2018-01-11T04:58:10.636Z,59.69
2018-01-11T05:00:44.434Z,60.27
2018-01-11T05:03:12.845Z,60.37
2018-01-11T05:05:41.231Z,60.64
2018-01-11T05:08:09.582Z,61.63
2018-01-11T05:10:37.979Z,61.98
2018-01-11T05:13:06.335Z,62.80
2018-01-11T05:15:34.800Z,63.13
2018-01-11T05:18:03.223Z,64.48
2018-01-11T05:20:31.620Z,64.05
2018-01-11T05:23:00.193Z,63.90
2018-01-11T05:25:28.556Z,64.52
2018-01-11T05:27:57.159Z,64.59
2018-01-11T05:30:25.523Z,66.01
2018-01-11T05:32:53.867Z,67.26
2018-01-11T05:35:22.287Z,66.51
2018-01-11T05:37:50.738Z,65.55
2018-01-11T05:40:19.252Z,66.82
2018-01-11T05:42:47.601Z,65.90
2018-01-11T05:45:15.985Z,65.31
2018-01-11T05:47:44.361Z,67.30
2018-01-11T05:50:13.884Z,67.68
2018-01-11T05:52:42.238Z,67.52
2018-01-11T05:55:10.644Z,67.22
2018-01-11T05:57:39.232Z,67.77
2018-01-11T06:00:07.612Z,66.71
2018-01-11T06:02:36.001Z,66.42
2018-01-11T06:05:04.374Z,68.00
2018-01-11T06:07:32.738Z,66.51
2018-01-11T06:10:01.101Z,66.81
2018-01-11T06:12:29.478Z,66.29
2018-01-11T06:14:57.845Z,66.21
2018-01-11T06:17:26.253Z,65.72
2018-01-11T06:19:54.642Z,66.28
2018-01-11T06:22:23.007Z,65.59
2018-01-11T06:24:51.412Z,66.13
2018-01-11T06:27:20.036Z,65.37
2018-01-11T06:29:48.377Z,65.29
2018-01-11T06:32:16.746Z,64.98
2018-01-11T06:34:45.166Z,64.34
2018-01-11T06:37:13.589Z,64.17
2018-01-11T06:39:41.974Z,64.69
2018-01-11T06:42:10.336Z,65.41
2018-01-11T06:44:38.744Z,65.14
2018-01-11T06:47:07.216Z,65.60
2018-01-11T06:49:35.606Z,64.74
2018-01-11T06:52:04.012Z,66.23
2018-01-11T06:54:32.783Z,66.76
2018-01-11T06:57:01.243Z,67.05
2018-01-11T06:59:29.627Z,66.28
2018-01-11T07:01:57.989Z,66.11
2018-01-11T07:04:26.376Z,66.25
2018-01-11T07:06:54.755Z,66.41
2018-01-11T07:09:23.118Z,66.87
2018-01-11T07:11:51.508Z,67.22
2018-01-11T07:14:20.196Z,66.96
2018-01-11T07:16:48.548Z,66.25
2018-01-11T07:19:16.899Z,66.86
2018-01-11T07:21:46.047Z,67.25
2018-01-11T07:24:14.415Z,67.13
2018-01-11T07:26:42.790Z,67.20
2018-01-11T07:29:11.188Z,67.14
2018-01-11T07:31:39.575Z,66.82
2018-01-11T07:34:07.940Z,66.85
2018-01-11T07:36:36.327Z,66.72
2018-01-11T07:39:04.708Z,66.28
2018-01-11T07:41:33.069Z,66.24
2018-01-11T07:44:01.450Z,66.64
2018-01-11T07:46:29.843Z,66.88
2018-01-11T07:48:58.216Z,66.72
2018-01-11T07:51:26.601Z,66.26
2018-01-11T07:53:54.962Z,66.45
2018-01-11T07:56:23.336Z,65.74
2018-01-11T07:58:51.717Z,66.61
2018-01-11T08:01:20.075Z,66.39
2018-01-11T08:03:48.482Z,65.99
2018-01-11T08:06:16.871Z,66.39
2018-01-11T08:08:45.252Z,66.91
2018-01-11T08:11:13.703Z,66.49
2018-01-11T08:13:42.073Z,65.94
2018-01-11T08:16:10.483Z,66.31
2018-01-11T08:18:38.928Z,66.59
2018-01-11T08:21:07.548Z,66.34
2018-01-11T08:23:35.928Z,66.20
2018-01-11T08:26:04.286Z,65.35
2018-01-11T08:28:32.650Z,66.80
2018-01-11T08:31:01.068Z,66.55
2018-01-11T08:33:29.444Z,65.93
2018-01-11T08:35:57.815Z,66.00
2018-01-11T08:38:26.212Z,65.16
2018-01-11T08:40:54.656Z,66.16
2018-01-11T08:43:23.021Z,66.02
2018-01-11T08:45:51.380Z,65.36
2018-01-11T08:48:20.140Z,65.23
2018-01-11T08:50:48.504Z,65.72
2018-01-11T08:53:17.004Z,65.86
2018-01-11T08:55:45.364Z,65.55
2018-01-11T08:58:13.732Z,66.60
2018-01-11T09:00:42.948Z,66.33
2018-01-11T09:03:11.324Z,67.20
2018-01-11T09:05:39.803Z,67.09
2018-01-11T09:08:08.177Z,66.58
2018-01-11T09:10:36.580Z,66.51
2018-01-11T09:13:05.046Z,66.13
2018-01-11T09:15:33.410Z,67.64
2018-01-11T09:18:01.801Z,68.68
2018-01-11T09:20:30.155Z,68.41
2018-01-11T09:22:58.516Z,67.98
2018-01-11T09:25:26.927Z,69.22
2018-01-11T09:27:55.917Z,68.85
2018-01-11T09:30:24.306Z,68.22
2018-01-11T09:32:52.656Z,67.48
2018-01-11T09:35:21.007Z,67.57
2018-01-11T09:37:49.864Z,67.25
2018-01-11T09:40:18.668Z,67.00
2018-01-11T09:42:47.126Z,66.85
2018-01-11T09:45:15.507Z,66.27
2018-01-11T09:47:43.876Z,66.23
2018-01-11T09:50:12.256Z,65.81
2018-01-11T09:52:40.618Z,66.09
2018-01-11T09:55:09.000Z,66.18
2018-01-11T09:57:37.932Z,66.22
2018-01-11T10:00:06.723Z,65.75
2018-01-11T10:02:35.122Z,66.11
2018-01-11T10:05:03.559Z,65.86
2018-01-11T10:07:32.042Z,65.69
2018-01-11T10:10:00.387Z,66.79
2018-01-11T10:12:28.758Z,66.70
2018-01-11T10:14:57.127Z,65.96
2018-01-11T10:17:25.494Z,65.50
2018-01-11T10:19:54.351Z,65.78
2018-01-11T10:22:22.731Z,66.46
2018-01-11T10:24:51.124Z,66.89
2018-01-11T10:27:19.501Z,67.26
2018-01-11T10:29:47.964Z,66.79
2018-01-11T10:32:16.336Z,67.22
2018-01-11T10:34:44.691Z,66.63
2018-01-11T10:37:13.076Z,66.94
2018-01-11T10:39:41.451Z,67.34
2018-01-11T10:42:09.867Z,67.73
2018-01-11T10:44:38.248Z,67.41
2018-01-11T10:47:06.611Z,67.05
2018-01-11T10:49:34.964Z,67.39
2018-01-11T10:52:03.388Z,69.29
2018-01-11T10:54:31.853Z,68.24
2018-01-11T10:57:00.243Z,67.93
2018-01-11T10:59:28.597Z,67.76
2018-01-11T11:02:02.411Z,67.50
2018-01-11T11:04:30.808Z,68.33
2018-01-11T11:06:59.274Z,67.84
2018-01-11T11:09:27.754Z,67.60
2018-01-11T11:11:56.236Z,67.65
2018-01-11T11:14:24.604Z,67.83
2018-01-11T11:16:52.977Z,67.37
2018-01-11T11:19:21.379Z,68.37
2018-01-11T11:21:49.861Z,67.75
2018-01-11T11:24:18.251Z,68.83
2018-01-11T11:26:46.621Z,68.28
2018-01-11T11:29:15.008Z,68.74
2018-01-11T11:31:43.370Z,67.54
2018-01-11T11:34:11.736Z,69.00
2018-01-11T11:36:40.087Z,68.76
2018-01-11T11:39:08.464Z,68.82
2018-01-11T11:41:36.820Z,68.17
2018-01-11T11:44:05.572Z,68.34
2018-01-11T11:46:34.056Z,68.08
2018-01-11T11:49:02.435Z,67.22
2018-01-11T11:51:30.818Z,67.96
2018-01-11T11:53:59.199Z,67.29
2018-01-11T11:56:27.678Z,67.65
2018-01-11T11:58:56.052Z,68.58
2018-01-11T12:01:24.404Z,67.94
2018-01-11T12:03:52.772Z,68.09
2018-01-11T12:06:21.136Z,67.66
2018-01-11T12:08:49.915Z,67.52
2018-01-11T12:11:18.681Z,67.66
2018-01-11T12:13:47.139Z,67.65
2018-01-11T12:16:15.523Z,67.35
2018-01-11T12:18:43.905Z,66.81
2018-01-11T12:21:12.353Z,67.00
2018-01-11T12:23:40.720Z,66.58
2018-01-11T12:26:09.077Z,66.72
2018-01-11T12:28:37.851Z,66.61
2018-01-11T12:31:06.302Z,66.85
2018-01-11T12:33:34.754Z,66.48
2018-01-11T12:36:03.107Z,66.72
2018-01-11T12:38:31.853Z,66.34
2018-01-11T12:41:00.227Z,66.53
2018-01-11T12:43:28.600Z,66.01
2018-01-11T12:45:56.962Z,66.57
2018-01-11T12:48:27.420Z,66.67
2018-01-11T12:50:55.788Z,66.56
2018-01-11T12:53:24.152Z,65.54
2018-01-11T12:55:52.516Z,66.97
2018-01-11T12:58:21.001Z,66.29
2018-01-11T13:00:49.404Z,67.16
2018-01-11T13:03:17.772Z,66.51
2018-01-11T13:05:46.149Z,67.05
2018-01-11T13:08:14.499Z,66.55
2018-01-11T13:10:42.880Z,66.84
2018-01-11T13:13:11.301Z,66.58
2018-01-11T13:15:39.655Z,67.43
2018-01-11T13:18:08.027Z,66.96
2018-01-11T13:20:36.387Z,67.25
2018-01-11T13:23:04.813Z,66.92
2018-01-11T13:25:33.170Z,66.37
2018-01-11T13:28:01.571Z,66.85
2018-01-11T13:30:29.940Z,66.58
2018-01-11T13:32:58.303Z,66.61
2018-01-11T13:35:26.676Z,66.52
2018-01-11T13:37:55.030Z,66.50
2018-01-11T13:40:23.798Z,66.70
2018-01-11T13:42:52.748Z,66.95
2018-01-11T13:45:21.108Z,67.33
2018-01-11T13:47:49.488Z,66.49
2018-01-11T13:50:17.860Z,66.37
2018-01-11T13:52:46.287Z,66.34
2018-01-11T13:55:14.654Z,67.18
2018-01-11T13:57:43.238Z,66.47
2018-01-11T14:00:11.628Z,66.87
2018-01-11T14:02:40.002Z,67.24
2018-01-11T14:05:08.352Z,67.22
2018-01-11T14:07:36.707Z,66.76
2018-01-11T14:10:05.469Z,67.13
2018-01-11T14:12:33.864Z,66.23
2018-01-11T14:15:02.721Z,66.99
2018-01-11T14:17:31.101Z,68.52
2018-01-11T14:19:59.469Z,67.79
2018-01-11T14:22:27.860Z,67.15
2018-01-11T14:24:56.332Z,66.74
2018-01-11T14:27:24.704Z,66.65
2018-01-11T14:29:53.214Z,66.83
2018-01-11T14:32:21.589Z,66.67
2018-01-11T14:34:49.951Z,66.25
2018-01-11T14:37:18.341Z,66.81
2018-01-11T14:39:46.734Z,68.37
2018-01-11T14:42:15.098Z,67.72
2018-01-11T14:44:43.577Z,67.35
2018-01-11T14:47:11.948Z,66.72
2018-01-11T14:49:40.416Z,67.71
2018-01-11T14:52:08.764Z,67.05
2018-01-11T14:54:37.215Z,65.72
2018-01-11T14:57:05.570Z,66.17
2018-01-11T14:59:33.919Z,66.95
2018-01-11T15:02:02.354Z,66.76
2018-01-11T15:04:30.718Z,66.53
2018-01-11T15:06:59.198Z,67.92
2018-01-11T15:09:27.675Z,67.51
2018-01-11T15:11:56.057Z,67.33
2018-01-11T15:14:24.527Z,66.67
2018-01-11T15:16:52.868Z,67.69
2018-01-11T15:19:21.224Z,67.16
2018-01-11T15:21:49.975Z,67.45
2018-01-11T15:24:18.378Z,69.04
2018-01-11T15:26:46.875Z,70.11
2018-01-11T15:29:15.731Z,69.93
2018-01-11T15:31:44.126Z,68.32
2018-01-11T15:34:12.503Z,68.36
2018-01-11T15:36:40.976Z,68.55
2018-01-11T15:39:09.441Z,69.42
2018-01-11T15:41:37.820Z,69.03
2018-01-11T15:44:06.204Z,68.79
2018-01-11T15:46:34.572Z,67.77
2018-01-11T15:49:02.958Z,67.33
2018-01-11T15:51:31.432Z,66.98
2018-01-11T15:53:59.807Z,67.02
2018-01-11T15:56:28.252Z,66.99
2018-01-11T15:58:56.616Z,68.17
2018-01-11T16:01:25.373Z,68.35
2018-01-11T16:03:53.848Z,68.32
2018-01-11T16:06:22.232Z,68.05
2018-01-11T16:08:50.607Z,67.17
2018-01-11T16:11:19.884Z,67.70
2018-01-11T16:13:48.231Z,66.99
2018-01-11T16:16:16.813Z,67.03
2018-01-11T16:18:45.564Z,67.02
2018-01-11T16:21:13.916Z,66.95
2018-01-11T16:23:42.300Z,66.94
2018-01-11T16:26:10.643Z,68.21
2018-01-11T16:28:39.017Z,68.90
2018-01-11T16:31:07.460Z,68.46
2018-01-11T16:33:35.915Z,68.88
2018-01-11T16:36:04.300Z,68.43
2018-01-11T16:38:32.709Z,68.29
2018-01-11T16:41:01.504Z,68.13
2018-01-11T16:43:30.356Z,68.24
2018-01-11T16:45:58.875Z,68.76
2018-01-11T16:48:27.632Z,70.45
2018-01-11T16:50:55.995Z,69.48
2018-01-11T16:53:24.368Z,69.23
2018-01-11T16:55:52.755Z,69.69
2018-01-11T16:58:21.140Z,68.86
2018-01-11T17:00:49.526Z,68.52
2018-01-11T17:03:17.899Z,68.30
2018-01-11T17:05:46.271Z,69.09
2018-01-11T17:08:14.685Z,68.14
2018-01-11T17:10:43.077Z,68.74
2018-01-11T17:13:11.827Z,67.80
2018-01-11T17:15:40.176Z,67.10
2018-01-11T17:18:08.548Z,67.12
2018-01-11T17:20:36.898Z,66.90
2018-01-11T17:23:05.640Z,66.84
2018-01-11T17:25:34.010Z,67.33
2018-01-11T17:28:02.408Z,66.78
2018-01-11T17:30:30.785Z,67.08
2018-01-11T17:32:59.157Z,66.44
2018-01-11T17:35:27.510Z,65.92
2018-01-11T17:37:55.862Z,66.17
2018-01-11T17:40:24.649Z,66.54
2018-01-11T17:42:53.415Z,65.58
2018-01-11T17:45:21.779Z,65.87
2018-01-11T17:47:50.156Z,65.91
2018-01-11T17:50:18.517Z,64.49
2018-01-11T17:52:46.878Z,64.46
2018-01-11T17:55:15.258Z,64.85
2018-01-11T17:57:43.613Z,66.09
2018-01-11T18:00:12.351Z,65.53
2018-01-11T18:02:40.731Z,65.39
2018-01-11T18:05:09.080Z,65.52
2018-01-11T18:07:37.432Z,65.43
2018-01-11T18:10:06.204Z,64.94
2018-01-11T18:12:34.561Z,65.39
2018-01-11T18:15:02.916Z,64.96
2018-01-11T18:17:31.330Z,65.01
2018-01-11T18:19:59.763Z,64.82
2018-01-11T18:22:28.119Z,65.21
2018-01-11T18:24:56.903Z,65.66
2018-01-11T18:27:25.745Z,65.97
2018-01-11T18:29:54.100Z,65.42
2018-01-11T18:32:22.520Z,64.93
2018-01-11T18:34:50.888Z,65.10
2018-01-11T18:37:19.252Z,64.97
2018-01-11T18:39:47.620Z,64.72
2018-01-11T18:42:16.025Z,64.43
2018-01-11T18:44:44.379Z,65.13
2018-01-11T18:47:12.744Z,64.74
2018-01-11T18:49:41.109Z,65.75
2018-01-11T18:52:09.896Z,65.61
2018-01-11T18:54:38.660Z,66.58
2018-01-11T18:57:07.012Z,66.56
2018-01-11T18:59:35.384Z,65.49
2018-01-11T19:02:03.737Z,66.06
2018-01-11T19:04:32.112Z,65.50
2018-01-11T19:07:00.537Z,65.07
2018-01-11T19:09:28.912Z,65.16
2018-01-11T19:11:57.385Z,66.40
2018-01-11T19:14:25.749Z,65.41
2018-01-11T19:16:54.119Z,64.85
2018-01-11T19:19:22.468Z,64.90
2018-01-11T19:21:51.220Z,64.68
2018-01-11T19:24:19.681Z,65.06
2018-01-11T19:26:48.024Z,65.10
2018-01-11T19:29:16.400Z,64.36
2018-01-11T19:31:44.761Z,64.55
2018-01-11T19:34:13.612Z,64.40
2018-01-11T19:36:41.972Z,64.43
2018-01-11T19:39:10.321Z,64.52
2018-01-11T19:41:39.172Z,64.42
2018-01-11T19:44:07.534Z,64.97
2018-01-11T19:46:35.932Z,64.99
2018-01-11T19:49:04.389Z,65.27
2018-01-11T19:51:32.773Z,65.84
2018-01-11T19:54:01.155Z,65.43
2018-01-11T19:56:29.507Z,64.24
2018-01-11T19:58:57.858Z,64.06
2018-01-11T20:01:26.696Z,64.73
2018-01-11T20:03:55.076Z,65.06
2018-01-11T20:06:23.440Z,64.53
2018-01-11T20:08:51.832Z,64.65
2018-01-11T20:11:20.331Z,65.45
2018-01-11T20:13:48.727Z,64.75
2018-01-11T20:16:17.482Z,64.65
2018-01-11T20:18:45.858Z,63.75
2018-01-11T20:21:14.249Z,63.74
2018-01-11T20:23:42.596Z,64.02
2018-01-11T20:26:10.976Z,64.50
2018-01-11T20:28:39.377Z,64.90
2018-01-11T20:31:07.860Z,64.46
2018-01-11T20:33:36.256Z,64.81
2018-01-11T20:36:04.680Z,64.50
2018-01-11T20:38:33.094Z,64.72
2018-01-11T20:41:01.444Z,64.46
2018-01-11T20:43:29.820Z,64.47
2018-01-11T20:45:58.167Z,64.66
2018-01-11T20:48:27.032Z,63.42
2018-01-11T20:50:55.400Z,63.13
2018-01-11T20:53:23.752Z,64.30
2018-01-11T20:55:52.175Z,63.27
2018-01-11T20:58:20.550Z,63.46
2018-01-11T21:00:48.908Z,62.38
2018-01-11T21:03:17.288Z,63.20
2018-01-11T21:05:45.641Z,63.28
2018-01-11T21:08:14.043Z,62.98
2018-01-11T21:10:42.424Z,64.05
2018-01-11T21:13:10.794Z,64.35
2018-01-11T21:15:39.156Z,65.11
2018-01-11T21:18:07.532Z,64.78
2018-01-11T21:20:35.910Z,63.92
2018-01-11T21:23:04.257Z,64.60
2018-01-11T21:25:32.609Z,64.12
2018-01-11T21:28:00.975Z,64.39
2018-01-11T21:30:29.372Z,64.93
2018-01-11T21:32:57.756Z,65.01
2018-01-11T21:35:26.107Z,64.67
2018-01-11T21:37:54.500Z,64.44
2018-01-11T21:40:22.888Z,64.47
2018-01-11T21:42:51.255Z,63.81
2018-01-11T21:45:19.722Z,65.25
2018-01-11T21:47:48.088Z,64.71
2018-01-11T21:50:16.440Z,64.30
2018-01-11T21:52:45.200Z,64.14
2018-01-11T21:55:13.551Z,64.42
2018-01-11T21:57:41.933Z,65.05
2018-01-11T22:00:10.280Z,64.32
2018-01-11T22:02:38.628Z,63.65
2018-01-11T22:05:07.383Z,63.55
2018-01-11T22:07:35.747Z,62.91
2018-01-11T22:10:04.118Z,63.80
2018-01-11T22:12:32.464Z,64.29
2018-01-11T22:15:00.892Z,64.30
2018-01-11T22:17:29.254Z,63.49
2018-01-11T22:19:57.654Z,64.95
2018-01-11T22:22:26.132Z,65.35
2018-01-11T22:24:54.569Z,67.20
2018-01-11T22:27:22.941Z,67.62
2018-01-11T22:29:51.854Z,67.57
2018-01-11T22:32:20.221Z,68.15
2018-01-11T22:34:48.559Z,67.62
2018-01-11T22:37:16.920Z,66.01
2018-01-11T22:39:45.274Z,65.71
2018-01-11T22:42:13.678Z,64.26
2018-01-11T22:44:42.153Z,64.07
2018-01-11T22:47:10.505Z,63.35
2018-01-11T22:49:38.916Z,63.68
2018-01-11T22:52:07.400Z,63.15
2018-01-11T22:54:35.752Z,63.32
2018-01-11T22:57:04.104Z,64.02
2018-01-11T22:59:32.604Z,65.22
2018-01-11T23:02:00.963Z,64.62
2018-01-11T23:04:29.712Z,64.82
2018-01-11T23:06:58.174Z,63.58
2018-01-11T23:09:26.685Z,63.97
2018-01-11T23:11:55.112Z,63.28
2018-01-11T23:14:23.518Z,62.84
2018-01-11T23:16:51.891Z,63.55
2018-01-11T23:19:20.247Z,63.12
2018-01-11T23:21:48.608Z,62.19
2018-01-11T23:24:17.436Z,62.66
2018-01-11T23:26:45.793Z,63.44
2018-01-11T23:29:14.156Z,63.14
2018-01-11T23:31:42.512Z,63.29
2018-01-11T23:34:10.854Z,63.07
2018-01-11T23:36:39.356Z,62.53
2018-01-11T23:39:07.816Z,63.39
2018-01-11T23:41:36.177Z,64.48
2018-01-11T23:44:04.576Z,63.10
2018-01-11T23:46:32.950Z,63.04
2018-01-11T23:49:01.298Z,63.12
2018-01-11T23:51:29.791Z,63.62
2018-01-11T23:53:58.196Z,64.94
2018-01-11T23:56:26.564Z,64.70
2018-01-11T23:58:54.932Z,64.91
